Startpagina
METAR-TAF:

METAR-TAF

Vliegvelden :

Selebi-Phikwe, Botswana

breedte: 22-03-19S, lengte: 027-49-13E, hoogte: 892 m

Actueel weer

Dit bericht is 9 uur en het 0 minuten geleden gemaakt, om 18:00 UTC
Weinig wind
Temperatuur 23°C
Vochtigheid 89%
Druk 1014 hPa
Zicht 10 km of meer
geen wolken onder 1500 m en geen cumulonimbus

METAR: FBSP 111800Z 00000KT CAVOK 23/21 Q1014

Tijdstip: 05:00 (03:00 UTC)

Verwachting

Dit bericht is 15 uur en het 0 minuten geleden gemaakt, om 12:00 UTC
Verwachting geldig van 11 om 15 UTC tot 11 om 24 UTC
Wind 6 kt uit het zuiden
Zicht 10 km of meer
Gebroken wolken op 2500 ft
Weinig wolken op 3500 ft, Cumulonimbus.

TAF: FBSP 111200Z 1115/1124 19006KT 9999 BKN025 FEW035CB

Waarnemingen en weersverwachtingen van meer dan 4000 vliegvelden (METAR en TAF).

De beschikbare stations zijn de gele en rode punten op de kaart.

Ga met uw muis naar het station om de naam te zien.

Klik dan om waarnemingen en weersverwachtingen te zien.

kaart wijzigen: klik op de groene knoppen met een zwart kruis om in te zoomen, op de groene knop met een streepje om uit te zoomen of op de groene pijlen voor aangrenzende kaarten.


METAR-TAF: